sensor_id;sensor_type;location;lat;lon;timestamp;pressure;altitude;pressure_sealevel;temperature;humidity
55610;BME280;41486;52.502;13.486;2023-04-27T00:02:18;101236.63;;;7.23;72.21
55610;BME280;41486;52.502;13.486;2023-04-27T00:04:46;101236.31;;;7.30;72.47
55610;BME280;41486;52.502;13.486;2023-04-27T00:07:15;101236.63;;;7.23;71.85
55610;BME280;41486;52.502;13.486;2023-04-27T00:09:43;101240.00;;;7.25;71.10
55610;BME280;41486;52.502;13.486;2023-04-27T00:12:11;101233.25;;;7.21;71.71
55610;BME280;41486;52.502;13.486;2023-04-27T00:14:40;101233.75;;;6.94;74.03
55610;BME280;41486;52.502;13.486;2023-04-27T00:17:08;101233.25;;;7.21;72.75
55610;BME280;41486;52.502;13.486;2023-04-27T00:19:36;101236.63;;;7.23;72.85
55610;BME280;41486;52.502;13.486;2023-04-27T00:22:05;101234.75;;;7.25;71.96
55610;BME280;41486;52.502;13.486;2023-04-27T00:24:33;101232.13;;;7.25;71.75
55610;BME280;41486;52.502;13.486;2023-04-27T00:27:01;101228.16;;;7.18;72.07
55610;BME280;41486;52.502;13.486;2023-04-27T00:29:29;101232.25;;;7.06;73.06
55610;BME280;41486;52.502;13.486;2023-04-27T00:31:58;101231.47;;;7.22;71.83
55610;BME280;41486;52.502;13.486;2023-04-27T00:34:26;101238.81;;;7.15;72.49
55610;BME280;41486;52.502;13.486;2023-04-27T00:36:56;101233.28;;;7.04;71.90
55610;BME280;41486;52.502;13.486;2023-04-27T00:39:24;101231.91;;;6.97;72.95
55610;BME280;41486;52.502;13.486;2023-04-27T00:41:52;101239.53;;;7.01;71.75
55610;BME280;41486;52.502;13.486;2023-04-27T00:44:23;101239.63;;;7.16;71.73
55610;BME280;41486;52.502;13.486;2023-04-27T00:46:51;101235.50;;;7.12;72.11
55610;BME280;41486;52.502;13.486;2023-04-27T00:49:22;101245.56;;;7.19;72.17
55610;BME280;41486;52.502;13.486;2023-04-27T00:51:50;101238.13;;;7.12;72.50
55610;BME280;41486;52.502;13.486;2023-04-27T00:54:21;101247.50;;;7.16;72.59
55610;BME280;41486;52.502;13.486;2023-04-27T00:56:51;101243.34;;;7.12;71.87
55610;BME280;41486;52.502;13.486;2023-04-27T00:59:20;101245.28;;;7.08;72.34
55610;BME280;41486;52.502;13.486;2023-04-27T01:01:50;101250.81;;;7.02;72.50
55610;BME280;41486;52.502;13.486;2023-04-27T01:04:20;101242.06;;;7.03;72.70
55610;BME280;41486;52.502;13.486;2023-04-27T01:06:50;101255.00;;;7.06;72.46
55610;BME280;41486;52.502;13.486;2023-04-27T01:09:19;101254.63;;;6.96;73.14
55610;BME280;41486;52.502;13.486;2023-04-27T01:11:49;101247.50;;;6.98;73.18
55610;BME280;41486;52.502;13.486;2023-04-27T01:14:17;101249.53;;;6.93;72.73
55610;BME280;41486;52.502;13.486;2023-04-27T01:16:45;101246.84;;;6.94;72.86
55610;BME280;41486;52.502;13.486;2023-04-27T01:19:13;101255.00;;;6.88;72.88
55610;BME280;41486;52.502;13.486;2023-04-27T01:21:43;101245.13;;;6.93;72.27
55610;BME280;41486;52.502;13.486;2023-04-27T01:24:12;101248.31;;;6.83;72.23
55610;BME280;41486;52.502;13.486;2023-04-27T01:26:40;101253.63;;;6.81;72.73
55610;BME280;41486;52.502;13.486;2023-04-27T01:29:09;101250.19;;;6.81;72.47
55610;BME280;41486;52.502;13.486;2023-04-27T01:31:37;101256.31;;;6.79;72.46
55610;BME280;41486;52.502;13.486;2023-04-27T01:34:05;101262.47;;;6.78;72.34
55610;BME280;41486;52.502;13.486;2023-04-27T01:36:33;101261.69;;;6.76;72.45
55610;BME280;41486;52.502;13.486;2023-04-27T01:39:02;101262.78;;;6.72;72.93
55610;BME280;41486;52.502;13.486;2023-04-27T01:41:36;101261.78;;;6.75;73.15
55610;BME280;41486;52.502;13.486;2023-04-27T01:44:05;101264.78;;;6.67;74.09
55610;BME280;41486;52.502;13.486;2023-04-27T01:46:33;101260.25;;;6.71;74.16
55610;BME280;41486;52.502;13.486;2023-04-27T01:49:01;101267.25;;;6.70;74.61
55610;BME280;41486;52.502;13.486;2023-04-27T01:51:29;101262.84;;;6.71;74.89
55610;BME280;41486;52.502;13.486;2023-04-27T01:53:58;101273.72;;;6.63;75.26
55610;BME280;41486;52.502;13.486;2023-04-27T01:56:26;101276.09;;;6.68;75.70
55610;BME280;41486;52.502;13.486;2023-04-27T01:58:56;101273.72;;;6.63;76.51
55610;BME280;41486;52.502;13.486;2023-04-27T02:01:24;101267.72;;;6.61;76.52
55610;BME280;41486;52.502;13.486;2023-04-27T02:03:52;101274.53;;;6.63;76.97
55610;BME280;41486;52.502;13.486;2023-04-27T02:06:20;101278.06;;;6.62;77.20
55610;BME280;41486;52.502;13.486;2023-04-27T02:08:48;101273.94;;;6.58;77.93
55610;BME280;41486;52.502;13.486;2023-04-27T02:11:17;101280.56;;;6.66;77.78
55610;BME280;41486;52.502;13.486;2023-04-27T02:13:45;101285.31;;;6.57;77.78
55610;BME280;41486;52.502;13.486;2023-04-27T02:16:15;101281.53;;;6.45;78.99
55610;BME280;41486;52.502;13.486;2023-04-27T02:18:44;101284.75;;;6.51;79.12
55610;BME280;41486;52.502;13.486;2023-04-27T02:21:11;101292.31;;;6.39;80.12
55610;BME280;41486;52.502;13.486;2023-04-27T02:23:39;101288.84;;;6.56;78.27
55610;BME280;41486;52.502;13.486;2023-04-27T02:26:14;101292.47;;;6.54;78.04
55610;BME280;41486;52.502;13.486;2023-04-27T02:28:43;101292.34;;;6.57;78.10
55610;BME280;41486;52.502;13.486;2023-04-27T02:31:12;101292.56;;;6.52;77.67
55610;BME280;41486;52.502;13.486;2023-04-27T02:33:42;101291.25;;;6.61;76.37
55610;BME280;41486;52.502;13.486;2023-04-27T02:36:10;101297.31;;;6.61;76.18
55610;BME280;41486;52.502;13.486;2023-04-27T02:38:38;101300.09;;;6.58;75.66
55610;BME280;41486;52.502;13.486;2023-04-27T02:41:06;101300.66;;;6.46;76.01
55610;BME280;41486;52.502;13.486;2023-04-27T02:43:34;101303.59;;;6.40;76.60
55610;BME280;41486;52.502;13.486;2023-04-27T02:46:04;101300.28;;;6.36;76.61
55610;BME280;41486;52.502;13.486;2023-04-27T02:48:32;101301.38;;;6.32;76.84
55610;BME280;41486;52.502;13.486;2023-04-27T02:51:04;101292.66;;;6.31;76.94
55610;BME280;41486;52.502;13.486;2023-04-27T02:53:33;101299.66;;;6.31;77.60
55610;BME280;41486;52.502;13.486;2023-04-27T02:56:01;101307.41;;;6.32;76.69
55610;BME280;41486;52.502;13.486;2023-04-27T02:58:28;101315.19;;;6.34;76.49
55610;BME280;41486;52.502;13.486;2023-04-27T03:00:57;101300.56;;;6.30;76.68
55610;BME280;41486;52.502;13.486;2023-04-27T03:03:25;101317.09;;;6.30;77.28
55610;BME280;41486;52.502;13.486;2023-04-27T03:05:53;101314.56;;;6.29;76.87
55610;BME280;41486;52.502;13.486;2023-04-27T03:08:23;101311.13;;;6.28;76.80
55610;BME280;41486;52.502;13.486;2023-04-27T03:10:51;101312.78;;;6.29;76.53
55610;BME280;41486;52.502;13.486;2023-04-27T03:13:19;101314.91;;;6.21;77.30
55610;BME280;41486;52.502;13.486;2023-04-27T03:15:48;101314.91;;;6.21;77.08
55610;BME280;41486;52.502;13.486;2023-04-27T03:18:18;101319.59;;;6.14;77.58
55610;BME280;41486;52.502;13.486;2023-04-27T03:20:46;101318.75;;;6.14;77.60
55610;BME280;41486;52.502;13.486;2023-04-27T03:23:14;101313.38;;;6.17;77.64
55610;BME280;41486;52.502;13.486;2023-04-27T03:25:45;101316.19;;;6.31;76.77
55610;BME280;41486;52.502;13.486;2023-04-27T03:28:14;101318.53;;;6.19;75.96
55610;BME280;41486;52.502;13.486;2023-04-27T03:30:42;101313.59;;;6.12;76.63
55610;BME280;41486;52.502;13.486;2023-04-27T03:33:10;101314.38;;;6.14;77.39
55610;BME280;41486;52.502;13.486;2023-04-27T03:35:38;101321.09;;;6.20;77.06
55610;BME280;41486;52.502;13.486;2023-04-27T03:38:06;101327.97;;;6.21;77.01
55610;BME280;41486;52.502;13.486;2023-04-27T03:40:34;101327.44;;;6.14;77.66
55610;BME280;41486;52.502;13.486;2023-04-27T03:43:04;101326.38;;;6.19;77.13
55610;BME280;41486;52.502;13.486;2023-04-27T03:45:32;101329.19;;;6.14;77.59
55610;BME280;41486;52.502;13.486;2023-04-27T03:48:00;101334.06;;;6.22;77.28
55610;BME280;41486;52.502;13.486;2023-04-27T03:50:28;101334.28;;;6.17;77.64
55610;BME280;41486;52.502;13.486;2023-04-27T03:52:56;101331.94;;;6.30;77.14
55610;BME280;41486;52.502;13.486;2023-04-27T03:55:24;101348.63;;;6.27;77.29
55610;BME280;41486;52.502;13.486;2023-04-27T03:57:52;101340.72;;;6.29;76.97
55610;BME280;41486;52.502;13.486;2023-04-27T04:00:22;101344.22;;;6.28;77.22
55610;BME280;41486;52.502;13.486;2023-04-27T04:02:52;101344.22;;;6.28;76.99
55610;BME280;41486;52.502;13.486;2023-04-27T04:05:20;101349.63;;;6.25;77.36
55610;BME280;41486;52.502;13.486;2023-04-27T04:07:48;101345.09;;;6.28;76.64
55610;BME280;41486;52.502;13.486;2023-04-27T04:10:17;101346.56;;;6.15;77.28
55610;BME280;41486;52.502;13.486;2023-04-27T04:12:47;101353.28;;;6.21;77.24
55610;BME280;41486;52.502;13.486;2023-04-27T04:15:16;101359.34;;;6.21;76.87
55610;BME280;41486;52.502;13.486;2023-04-27T04:17:45;101354.97;;;6.22;77.54
55610;BME280;41486;52.502;13.486;2023-04-27T04:20:15;101364.72;;;6.18;76.92
55610;BME280;41486;52.502;13.486;2023-04-27T04:22:43;101370.09;;;6.15;77.79
55610;BME280;41486;52.502;13.486;2023-04-27T04:25:11;101372.66;;;6.17;77.55
55610;BME280;41486;52.502;13.486;2023-04-27T04:27:40;101373.50;;;6.17;77.89
55610;BME280;41486;52.502;13.486;2023-04-27T04:30:09;101368.66;;;6.27;77.68
55610;BME280;41486;52.502;13.486;2023-04-27T04:32:37;101367.91;;;6.44;76.94
55610;BME280;41486;52.502;13.486;2023-04-27T04:35:08;101365.84;;;6.31;77.59
55610;BME280;41486;52.502;13.486;2023-04-27T04:37:37;101372.56;;;6.37;77.80
55610;BME280;41486;52.502;13.486;2023-04-27T04:40:06;101382.19;;;6.37;75.73
55610;BME280;41486;52.502;13.486;2023-04-27T04:42:36;101376.59;;;6.25;75.64
55610;BME280;41486;52.502;13.486;2023-04-27T04:45:06;101378.44;;;6.23;76.29
55610;BME280;41486;52.502;13.486;2023-04-27T04:47:35;101372.38;;;6.23;76.79
55610;BME280;41486;52.502;13.486;2023-04-27T04:50:03;101379.69;;;6.34;76.49
55610;BME280;41486;52.502;13.486;2023-04-27T04:52:33;101372.56;;;6.37;74.89
55610;BME280;41486;52.502;13.486;2023-04-27T04:55:03;101382.22;;;6.35;75.32
55610;BME280;41486;52.502;13.486;2023-04-27T04:57:31;101376.97;;;6.37;75.58
55610;BME280;41486;52.502;13.486;2023-04-27T04:59:59;101385.13;;;6.48;75.39
55610;BME280;41486;52.502;13.486;2023-04-27T05:02:27;101389.50;;;6.67;74.83
55610;BME280;41486;52.502;13.486;2023-04-27T05:04:55;101392.63;;;6.56;75.39
55610;BME280;41486;52.502;13.486;2023-04-27T05:07:23;101395.97;;;6.58;75.56
55610;BME280;41486;52.502;13.486;2023-04-27T05:09:54;101394.03;;;6.63;75.47
55610;BME280;41486;52.502;13.486;2023-04-27T05:12:22;101397.38;;;6.65;74.91
55610;BME280;41486;52.502;13.486;2023-04-27T05:14:50;101389.31;;;6.52;75.37
55610;BME280;41486;52.502;13.486;2023-04-27T05:17:18;101397.28;;;6.49;75.70
55610;BME280;41486;52.502;13.486;2023-04-27T05:19:46;101391.56;;;6.41;76.22
55610;BME280;41486;52.502;13.486;2023-04-27T05:22:14;101402.03;;;6.41;77.25
55610;BME280;41486;52.502;13.486;2023-04-27T05:24:42;101399.19;;;6.45;76.30
55610;BME280;41486;52.502;13.486;2023-04-27T05:27:12;101398.00;;;6.34;77.13
55610;BME280;41486;52.502;13.486;2023-04-27T05:29:40;101398.50;;;6.42;77.35
55610;BME280;41486;52.502;13.486;2023-04-27T05:32:08;101392.44;;;6.59;78.34
55610;BME280;41486;52.502;13.486;2023-04-27T05:34:36;101391.06;;;6.52;78.37
55610;BME280;41486;52.502;13.486;2023-04-27T05:37:04;101394.19;;;6.77;78.36
55610;BME280;41486;52.502;13.486;2023-04-27T05:39:32;101393.34;;;6.77;79.08
55610;BME280;41486;52.502;13.486;2023-04-27T05:42:00;101398.59;;;6.94;76.97
55610;BME280;41486;52.502;13.486;2023-04-27T05:44:30;101404.13;;;6.88;76.01
55610;BME280;41486;52.502;13.486;2023-04-27T05:46:58;101405.00;;;6.89;76.11
55610;BME280;41486;52.502;13.486;2023-04-27T05:49:26;101406.88;;;7.04;75.24
55610;BME280;41486;52.502;13.486;2023-04-27T05:51:54;101409.28;;;6.90;75.75
55610;BME280;41486;52.502;13.486;2023-04-27T05:54:24;101411.47;;;6.99;76.54
55610;BME280;41486;52.502;13.486;2023-04-27T05:56:53;101401.38;;;6.91;74.33
55610;BME280;41486;52.502;13.486;2023-04-27T05:59:21;101404.53;;;6.81;77.02
55610;BME280;41486;52.502;13.486;2023-04-27T06:01:50;101411.09;;;7.07;74.74
55610;BME280;41486;52.502;13.486;2023-04-27T06:04:18;101419.09;;;7.04;74.19
55610;BME280;41486;52.502;13.486;2023-04-27T06:06:46;101411.47;;;6.99;75.05
55610;BME280;41486;52.502;13.486;2023-04-27T06:09:14;101417.34;;;7.04;74.87
55610;BME280;41486;52.502;13.486;2023-04-27T06:11:42;101422.75;;;6.82;74.51
55610;BME280;41486;52.502;13.486;2023-04-27T06:14:12;101429.59;;;6.85;75.16
55610;BME280;41486;52.502;13.486;2023-04-27T06:16:40;101429.13;;;6.76;75.36
55610;BME280;41486;52.502;13.486;2023-04-27T06:19:09;101429.03;;;6.78;76.56
55610;BME280;41486;52.502;13.486;2023-04-27T06:21:38;101432.09;;;6.88;75.40
55610;BME280;41486;52.502;13.486;2023-04-27T06:24:06;101427.19;;;6.80;75.24
55610;BME280;41486;52.502;13.486;2023-04-27T06:26:34;101431.00;;;6.92;73.66
55610;BME280;41486;52.502;13.486;2023-04-27T06:29:02;101425.19;;;7.04;72.49
55610;BME280;41486;52.502;13.486;2023-04-27T06:31:30;101433.25;;;7.00;72.08
55610;BME280;41486;52.502;13.486;2023-04-27T06:33:58;101428.84;;;7.00;71.02
55610;BME280;41486;52.502;13.486;2023-04-27T06:36:28;101432.56;;;6.96;70.84
55610;BME280;41486;52.502;13.486;2023-04-27T06:38:59;101436.00;;;6.97;71.35
55610;BME280;41486;52.502;13.486;2023-04-27T06:41:27;101431.22;;;6.87;69.93
55610;BME280;41486;52.502;13.486;2023-04-27T06:43:55;101434.91;;;6.83;70.74
55610;BME280;41486;52.502;13.486;2023-04-27T06:46:24;101442.25;;;6.94;69.75
55610;BME280;41486;52.502;13.486;2023-04-27T06:48:53;101435.63;;;6.87;69.10
55610;BME280;41486;52.502;13.486;2023-04-27T06:51:21;101431.44;;;6.83;67.79
55610;BME280;41486;52.502;13.486;2023-04-27T06:53:50;101440.97;;;6.84;68.10
55610;BME280;41486;52.502;13.486;2023-04-27T06:56:18;101440.38;;;6.78;67.77
55610;BME280;41486;52.502;13.486;2023-04-27T06:58:46;101441.84;;;6.84;67.34
55610;BME280;41486;52.502;13.486;2023-04-27T07:01:14;101443.84;;;6.97;66.66
55610;BME280;41486;52.502;13.486;2023-04-27T07:03:42;101442.72;;;7.02;66.45
55610;BME280;41486;52.502;13.486;2023-04-27T07:06:11;101451.19;;;7.07;65.21
55610;BME280;41486;52.502;13.486;2023-04-27T07:08:39;101442.28;;;7.12;65.59
55610;BME280;41486;52.502;13.486;2023-04-27T07:11:08;101448.72;;;7.22;65.61
55610;BME280;41486;52.502;13.486;2023-04-27T07:13:37;101448.97;;;7.35;63.39
55610;BME280;41486;52.502;13.486;2023-04-27T07:16:05;101453.38;;;7.34;62.90
55610;BME280;41486;52.502;13.486;2023-04-27T07:18:33;101453.28;;;7.36;63.87
55610;BME280;41486;52.502;13.486;2023-04-27T07:21:02;101457.06;;;7.30;64.79
55610;BME280;41486;52.502;13.486;2023-04-27T07:23:30;101451.53;;;7.36;64.58
55610;BME280;41486;52.502;13.486;2023-04-27T07:25:58;101457.97;;;7.47;63.71
55610;BME280;41486;52.502;13.486;2023-04-27T07:28:28;101459.59;;;7.67;62.69
55610;BME280;41486;52.502;13.486;2023-04-27T07:30:56;101456.00;;;7.52;64.01
55610;BME280;41486;52.502;13.486;2023-04-27T07:33:24;101460.22;;;7.54;62.88
55610;BME280;41486;52.502;13.486;2023-04-27T07:35:52;101441.53;;;7.45;63.35
55610;BME280;41486;52.502;13.486;2023-04-27T07:38:20;101450.00;;;7.50;63.79
55610;BME280;41486;52.502;13.486;2023-04-27T07:40:49;101456.56;;;7.41;63.84
55610;BME280;41486;52.502;13.486;2023-04-27T07:43:17;101446.38;;;7.52;63.55
55610;BME280;41486;52.502;13.486;2023-04-27T07:45:47;101448.66;;;7.58;63.32
55610;BME280;41486;52.502;13.486;2023-04-27T07:48:15;101464.84;;;7.67;62.88
55610;BME280;41486;52.502;13.486;2023-04-27T07:50:44;101457.56;;;7.89;61.86
55610;BME280;41486;52.502;13.486;2023-04-27T07:53:12;101464.69;;;7.87;61.08
55610;BME280;41486;52.502;13.486;2023-04-27T07:55:40;101466.84;;;7.79;61.04
55610;BME280;41486;52.502;13.486;2023-04-27T07:58:09;101458.44;;;7.72;62.27
55610;BME280;41486;52.502;13.486;2023-04-27T08:00:37;101461.97;;;7.71;61.51
55610;BME280;41486;52.502;13.486;2023-04-27T08:03:07;101462.94;;;8.04;60.29
55610;BME280;41486;52.502;13.486;2023-04-27T08:05:35;101465.19;;;8.28;58.29
55610;BME280;41486;52.502;13.486;2023-04-27T08:08:04;101459.66;;;8.16;58.89
55610;BME280;41486;52.502;13.486;2023-04-27T08:10:32;101456.38;;;8.13;57.69
55610;BME280;41486;52.502;13.486;2023-04-27T08:13:01;101466.50;;;8.19;56.82
55610;BME280;41486;52.502;13.486;2023-04-27T08:15:29;101464.13;;;8.14;56.03
55610;BME280;41486;52.502;13.486;2023-04-27T08:17:57;101466.88;;;7.95;56.97
55610;BME280;41486;52.502;13.486;2023-04-27T08:20:26;101463.78;;;8.04;57.61
55610;BME280;41486;52.502;13.486;2023-04-27T08:22:54;101459.22;;;8.08;58.29
55610;BME280;41486;52.502;13.486;2023-04-27T08:25:22;101463.69;;;8.40;57.23
55610;BME280;41486;52.502;13.486;2023-04-27T08:27:50;101466.72;;;8.32;56.80
55610;BME280;41486;52.502;13.486;2023-04-27T08:30:19;101471.53;;;8.24;57.32
55610;BME280;41486;52.502;13.486;2023-04-27T08:32:47;101464.34;;;8.27;56.58
55610;BME280;41486;52.502;13.486;2023-04-27T08:35:15;101470.09;;;8.34;56.19
55610;BME280;41486;52.502;13.486;2023-04-27T08:37:45;101475.88;;;8.41;54.86
55610;BME280;41486;52.502;13.486;2023-04-27T08:40:13;101480.25;;;8.24;54.55
55610;BME280;41486;52.502;13.486;2023-04-27T08:42:53;101477.53;;;8.26;55.14
55610;BME280;41486;52.502;13.486;2023-04-27T08:45:22;101477.38;;;8.29;55.58
55610;BME280;41486;52.502;13.486;2023-04-27T08:47:50;101474.81;;;8.27;56.47
55610;BME280;41486;52.502;13.486;2023-04-27T08:50:19;101473.16;;;8.42;55.66
55610;BME280;41486;52.502;13.486;2023-04-27T08:52:49;101472.03;;;8.48;54.83
55610;BME280;41486;52.502;13.486;2023-04-27T08:55:18;101474.69;;;8.46;54.01
55610;BME280;41486;52.502;13.486;2023-04-27T08:57:55;101481.50;;;8.50;53.05
55610;BME280;41486;52.502;13.486;2023-04-27T09:00:25;101484.63;;;8.24;51.98
55610;BME280;41486;52.502;13.486;2023-04-27T09:02:53;101483.13;;;8.19;52.83
55610;BME280;41486;52.502;13.486;2023-04-27T09:05:22;101482.78;;;8.26;52.26
55610;BME280;41486;52.502;13.486;2023-04-27T09:08:02;101480.56;;;8.18;51.59
55610;BME280;41486;52.502;13.486;2023-04-27T09:10:42;101476.69;;;8.25;52.76
55610;BME280;41486;52.502;13.486;2023-04-27T09:13:11;101474.44;;;8.35;53.53
55610;BME280;41486;52.502;13.486;2023-04-27T09:15:43;101467.72;;;8.29;54.81
55610;BME280;41486;52.502;13.486;2023-04-27T09:18:15;101470.22;;;8.48;54.12
55610;BME280;41486;52.502;13.486;2023-04-27T09:20:44;101464.78;;;8.35;54.69
55610;BME280;41486;52.502;13.486;2023-04-27T09:23:25;101462.47;;;8.45;53.77
55610;BME280;41486;52.502;13.486;2023-04-27T09:25:55;101476.44;;;8.63;53.60
55610;BME280;41486;52.502;13.486;2023-04-27T09:28:24;101472.88;;;8.80;51.54
55610;BME280;41486;52.502;13.486;2023-04-27T09:30:54;101464.31;;;8.93;50.49
55610;BME280;41486;52.502;13.486;2023-04-27T09:33:22;101469.88;;;8.87;50.22
55610;BME280;41486;52.502;13.486;2023-04-27T09:35:51;101464.75;;;8.53;52.07
55610;BME280;41486;52.502;13.486;2023-04-27T09:38:21;101463.69;;;8.40;53.21
55610;BME280;41486;52.502;13.486;2023-04-27T09:40:51;101458.72;;;8.51;53.99
55610;BME280;41486;52.502;13.486;2023-04-27T09:43:19;101457.63;;;8.55;54.18
55610;BME280;41486;52.502;13.486;2023-04-27T09:45:49;101459.75;;;8.64;54.23
55610;BME280;41486;52.502;13.486;2023-04-27T09:48:17;101458.50;;;8.72;54.25
55610;BME280;41486;52.502;13.486;2023-04-27T09:50:45;101448.06;;;8.54;54.37
55610;BME280;41486;52.502;13.486;2023-04-27T09:53:15;101454.41;;;8.66;54.73
55610;BME280;41486;52.502;13.486;2023-04-27T09:55:58;101450.84;;;8.83;53.87
55610;BME280;41486;52.502;13.486;2023-04-27T09:58:44;101446.00;;;8.91;53.26
55610;BME280;41486;52.502;13.486;2023-04-27T10:01:22;101445.94;;;9.23;53.13
55610;BME280;41486;52.502;13.486;2023-04-27T10:04:04;101444.88;;;9.42;51.62
55610;BME280;41486;52.502;13.486;2023-04-27T10:06:52;101436.22;;;9.70;50.78
55610;BME280;41486;52.502;13.486;2023-04-27T10:09:25;101443.41;;;9.52;49.08
55610;BME280;41486;52.502;13.486;2023-04-27T10:12:12;101452.69;;;9.58;49.12
55610;BME280;41486;52.502;13.486;2023-04-27T10:14:51;101440.44;;;9.87;47.97
55610;BME280;41486;52.502;13.486;2023-04-27T10:17:23;101441.47;;;10.28;47.38
55610;BME280;41486;52.502;13.486;2023-04-27T10:19:54;101432.16;;;10.79;45.61
55610;BME280;41486;52.502;13.486;2023-04-27T10:22:36;101431.25;;;10.38;45.78
55610;BME280;41486;52.502;13.486;2023-04-27T10:25:18;101431.53;;;10.19;46.13
55610;BME280;41486;52.502;13.486;2023-04-27T10:27:49;101429.16;;;9.71;46.08
55610;BME280;41486;52.502;13.486;2023-04-27T10:30:20;101436.09;;;10.30;44.72
55610;BME280;41486;52.502;13.486;2023-04-27T10:32:53;101439.16;;;9.50;46.65
55610;BME280;41486;52.502;13.486;2023-04-27T10:35:30;101443.47;;;9.51;46.69
55610;BME280;41486;52.502;13.486;2023-04-27T10:38:05;101425.84;;;9.53;45.14
55610;BME280;41486;52.502;13.486;2023-04-27T10:40:34;101425.69;;;9.85;44.32
55610;BME280;41486;52.502;13.486;2023-04-27T10:43:13;101436.88;;;10.32;42.80
55610;BME280;41486;52.502;13.486;2023-04-27T10:45:42;101430.09;;;10.56;42.04
55610;BME280;41486;52.502;13.486;2023-04-27T10:48:12;101437.16;;;11.24;41.31
55610;BME280;41486;52.502;13.486;2023-04-27T10:50:41;101439.41;;;11.02;41.46
55610;BME280;41486;52.502;13.486;2023-04-27T10:53:10;101434.66;;;10.67;41.63
55610;BME280;41486;52.502;13.486;2023-04-27T10:55:38;101431.38;;;10.64;42.54
55610;BME280;41486;52.502;13.486;2023-04-27T10:58:06;101432.97;;;10.94;41.95
55610;BME280;41486;52.502;13.486;2023-04-27T11:00:37;101435.03;;;11.16;41.68
55610;BME280;41486;52.502;13.486;2023-04-27T11:03:12;101423.41;;;11.72;40.68
55610;BME280;41486;52.502;13.486;2023-04-27T11:05:43;101428.44;;;11.75;38.87
55610;BME280;41486;52.502;13.486;2023-04-27T11:08:13;101429.00;;;12.56;38.91
55610;BME280;41486;52.502;13.486;2023-04-27T11:10:43;101428.09;;;12.92;36.52
55610;BME280;41486;52.502;13.486;2023-04-27T11:13:13;101435.78;;;13.78;35.53
55610;BME280;41486;52.502;13.486;2023-04-27T11:15:47;101426.72;;;14.72;33.09
55610;BME280;41486;52.502;13.486;2023-04-27T11:18:17;101425.94;;;12.12;37.16
55610;BME280;41486;52.502;13.486;2023-04-27T11:20:47;101441.41;;;11.65;37.94
55610;BME280;41486;52.502;13.486;2023-04-27T11:23:23;101440.09;;;11.19;39.69
55610;BME280;41486;52.502;13.486;2023-04-27T11:25:52;101442.66;;;10.93;40.06
55610;BME280;41486;52.502;13.486;2023-04-27T11:28:24;101441.63;;;10.68;40.43
55610;BME280;41486;52.502;13.486;2023-04-27T11:30:56;101445.44;;;11.04;40.80
55610;BME280;41486;52.502;13.486;2023-04-27T11:33:25;101451.72;;;10.47;41.99
55610;BME280;41486;52.502;13.486;2023-04-27T11:35:54;101438.25;;;10.23;42.30
55610;BME280;41486;52.502;13.486;2023-04-27T11:38:22;101456.13;;;10.03;42.89
55610;BME280;41486;52.502;13.486;2023-04-27T11:41:01;101449.16;;;10.31;42.95
55610;BME280;41486;52.502;13.486;2023-04-27T11:43:33;101453.88;;;10.26;41.45
55610;BME280;41486;52.502;13.486;2023-04-27T11:46:03;101454.25;;;10.34;39.91
55610;BME280;41486;52.502;13.486;2023-04-27T11:48:31;101449.53;;;10.25;40.84
55610;BME280;41486;52.502;13.486;2023-04-27T11:50:59;101455.47;;;10.29;40.75
55610;BME280;41486;52.502;13.486;2023-04-27T11:53:28;101452.00;;;10.43;40.81
55610;BME280;41486;52.502;13.486;2023-04-27T11:55:59;101450.97;;;10.45;40.67
55610;BME280;41486;52.502;13.486;2023-04-27T11:58:28;101447.19;;;10.35;41.33
55610;BME280;41486;52.502;13.486;2023-04-27T12:00:56;101456.13;;;10.47;41.60
55610;BME280;41486;52.502;13.486;2023-04-27T12:03:26;101458.19;;;10.27;42.39
55610;BME280;41486;52.502;13.486;2023-04-27T12:05:55;101462.53;;;10.43;42.37
55610;BME280;41486;52.502;13.486;2023-04-27T12:08:37;101474.81;;;10.42;42.20
55610;BME280;41486;52.502;13.486;2023-04-27T12:11:05;101469.94;;;10.92;41.53
55610;BME280;41486;52.502;13.486;2023-04-27T12:13:33;101467.28;;;10.65;42.53
55610;BME280;41486;52.502;13.486;2023-04-27T12:16:01;101471.91;;;10.32;42.48
55610;BME280;41486;52.502;13.486;2023-04-27T12:18:34;101463.09;;;13.07;38.18
55610;BME280;41486;52.502;13.486;2023-04-27T12:21:02;101475.13;;;12.00;38.26
55610;BME280;41486;52.502;13.486;2023-04-27T12:23:34;101469.50;;;11.79;38.70
55610;BME280;41486;52.502;13.486;2023-04-27T12:26:02;101454.44;;;10.87;40.24
55610;BME280;41486;52.502;13.486;2023-04-27T12:28:30;101467.47;;;10.62;40.12
55610;BME280;41486;52.502;13.486;2023-04-27T12:31:00;101466.44;;;10.64;40.71
55610;BME280;41486;52.502;13.486;2023-04-27T12:33:30;101464.91;;;10.75;40.97
55610;BME280;41486;52.502;13.486;2023-04-27T12:36:00;101464.59;;;10.52;41.38
55610;BME280;41486;52.502;13.486;2023-04-27T12:38:27;101473.16;;;10.41;42.04
55610;BME280;41486;52.502;13.486;2023-04-27T12:40:57;101468.25;;;10.20;42.33
55610;BME280;41486;52.502;13.486;2023-04-27T12:43:27;101472.38;;;10.24;42.36
55610;BME280;41486;52.502;13.486;2023-04-27T12:45:55;101470.97;;;10.33;42.54
55610;BME280;41486;52.502;13.486;2023-04-27T12:48:23;101469.75;;;10.10;42.91
55610;BME280;41486;52.502;13.486;2023-04-27T12:50:52;101472.50;;;10.37;42.97
55610;BME280;41486;52.502;13.486;2023-04-27T12:53:21;101476.22;;;10.48;42.20
55610;BME280;41486;52.502;13.486;2023-04-27T12:55:49;101464.72;;;10.63;42.26
55610;BME280;41486;52.502;13.486;2023-04-27T12:58:19;101465.22;;;10.97;42.09
55610;BME280;41486;52.502;13.486;2023-04-27T13:00:47;101474.63;;;11.55;40.78